Time;durP1;ratioP1;P1;durP2;ratioP2;P2;SDS_P1;SDS_P2;PMS_P1;PMS_P2;Temp;Humidity;BMP_temperature;BMP_pressure;BME280_temperature;BME280_humidity;BME280_pressure;Samples;Min_cycle;Max_cycle;Signal;HPM_P1;HPM_P2
2024/03/07 00:01:26;;;;;;;7.60;1.83;;;;;;;8.88;100.00;100868.88;5040859;28;20028;-75
2024/03/07 00:03:52;;;;;;;7.50;2.67;;;;;;;8.93;100.00;100866.53;5073764;28;20205;-75
2024/03/07 00:06:17;;;;;;;9.05;2.28;;;;;;;8.94;100.00;100872.75;5040553;28;20434;-75
2024/03/07 00:08:43;;;;;;;11.23;2.45;;;;;;;8.99;100.00;100865.03;5056545;28;20063;-75
2024/03/07 00:11:09;;;;;;;11.23;3.05;;;;;;;9.01;100.00;100863.03;5057023;28;20165;-75
2024/03/07 00:13:35;;;;;;;10.77;2.47;;;;;;;9.04;100.00;100865.41;5040381;28;20024;-76
2024/03/07 00:16:02;;;;;;;8.25;2.05;;;;;;;9.04;100.00;100860.03;5073256;28;20450;-75
2024/03/07 00:18:27;;;;;;;6.43;2.13;;;;;;;9.01;100.00;100866.56;5056485;28;20150;-75
2024/03/07 00:20:54;;;;;;;4.10;1.55;;;;;;;9.06;100.00;100866.09;5040115;28;20074;-75
2024/03/07 00:23:20;;;;;;;5.30;1.80;;;;;;;9.05;100.00;100867.09;5056940;28;20032;-75
2024/03/07 00:25:48;;;;;;;8.65;2.22;;;;;;;9.01;100.00;100868.41;5056742;28;20093;-75
2024/03/07 00:28:17;;;;;;;5.28;2.00;;;;;;;9.01;100.00;100863.03;5057096;28;20375;-75
2024/03/07 00:30:45;;;;;;;8.82;1.77;;;;;;;9.01;100.00;100865.72;5056362;28;20074;-75
2024/03/07 00:33:11;;;;;;;5.38;2.30;;;;;;;8.99;100.00;100865.88;5039996;28;20078;-75
2024/03/07 00:35:37;;;;;;;7.28;1.63;;;;;;;9.03;100.00;100874.47;5056060;28;20031;-76
2024/03/07 00:38:03;;;;;;;7.78;2.17;;;;;;;9.03;100.00;100866.41;5023089;28;20032;-75
2024/03/07 00:40:29;;;;;;;8.85;2.55;;;;;;;8.92;100.00;100867.56;5039937;28;20028;-75
2024/03/07 00:42:55;;;;;;;7.43;1.92;;;;;;;8.88;100.00;100868.88;5039894;28;20055;-75
2024/03/07 00:45:20;;;;;;;8.50;2.20;;;;;;;8.90;100.00;100868.72;5056013;28;20104;-75
2024/03/07 00:47:48;;;;;;;6.75;1.63;;;;;;;8.91;100.00;100873.06;5039822;28;20026;-75
2024/03/07 00:50:14;;;;;;;4.35;2.13;;;;;;;8.91;100.00;100873.06;5039530;28;20032;-75
2024/03/07 00:52:40;;;;;;;4.00;1.77;;;;;;;8.93;100.00;100876.44;5039705;28;20039;-75
2024/03/07 00:55:09;;;;;;;13.10;4.63;;;;;;;8.94;100.00;100872.75;5039635;28;20028;-75
2024/03/07 00:57:35;;;;;;;7.82;2.92;;;;;;;8.94;100.00;100875.41;5040223;28;20173;-75
2024/03/07 01:00:01;;;;;;;4.00;1.90;;;;;;;8.93;100.00;100877.25;5039620;28;20127;-75
2024/03/07 01:02:34;;;;;;;4.10;2.00;;;;;;;8.94;100.00;100880.78;5056799;28;20028;-75
2024/03/07 01:04:59;;;;;;;6.85;1.95;;;;;;;8.96;100.00;100870.75;5039720;28;20020;-75
2024/03/07 01:07:25;;;;;;;4.10;2.38;;;;;;;8.97;100.00;100881.31;5039172;28;20028;-75
2024/03/07 01:09:51;;;;;;;6.47;2.00;;;;;;;8.91;100.00;100881.94;5039506;28;20076;-74
2024/03/07 01:12:17;;;;;;;4.47;1.70;;;;;;;8.86;100.00;100878.06;5056392;28;20068;-74
2024/03/07 01:14:42;;;;;;;10.73;2.05;;;;;;;8.78;100.00;100879.72;5056748;28;20037;-75
2024/03/07 01:17:08;;;;;;;4.60;2.38;;;;;;;8.73;100.00;100875.84;5039261;28;20465;-75
2024/03/07 01:19:34;;;;;;;3.38;1.30;;;;;;;8.69;100.00;100878.00;5039443;28;20086;-75
2024/03/07 01:21:59;;;;;;;3.30;1.30;;;;;;;8.67;100.00;100881.84;5039429;28;20040;-75
2024/03/07 01:24:25;;;;;;;8.27;3.70;;;;;;;8.66;100.00;100886.38;5039418;28;20024;-75
2024/03/07 01:26:51;;;;;;;4.43;1.60;;;;;;;8.68;100.00;100884.38;5056083;28;20036;-75
2024/03/07 01:29:17;;;;;;;5.82;2.10;;;;;;;8.70;100.00;100879.69;5039280;28;20118;-75
2024/03/07 01:31:43;;;;;;;6.65;1.98;;;;;;;8.69;100.00;100880.69;5039297;28;20405;-75
2024/03/07 01:34:09;;;;;;;2.20;1.42;;;;;;;8.70;100.00;100877.00;5039344;28;20043;-75
2024/03/07 01:36:34;;;;;;;4.13;1.40;;;;;;;8.73;100.00;100876.69;5038985;28;20469;-75
2024/03/07 01:39:00;;;;;;;4.13;1.85;;;;;;;8.75;100.00;100884.56;5039238;28;20032;-75
2024/03/07 01:41:26;;;;;;;4.30;1.88;;;;;;;8.72;100.00;100879.53;5039248;28;20060;-74
2024/03/07 01:43:52;;;;;;;1.92;1.20;;;;;;;8.71;100.00;100880.53;5039455;28;20127;-75
2024/03/07 01:46:19;;;;;;;6.35;1.70;;;;;;;8.69;100.00;100883.38;5039192;28;20103;-75
2024/03/07 01:48:46;;;;;;;4.25;0.82;;;;;;;8.65;100.00;100879.31;5039358;28;20040;-75
2024/03/07 01:51:12;;;;;;;2.13;1.70;;;;;;;8.62;100.00;100884.16;5039260;28;20033;-75
2024/03/07 01:53:38;;;;;;;9.25;2.50;;;;;;;8.64;100.00;100882.19;5039070;28;20036;-74
2024/03/07 01:56:04;;;;;;;4.20;1.70;;;;;;;8.65;100.00;100890.03;5038599;28;20048;-75
2024/03/07 01:58:33;;;;;;;3.92;1.77;;;;;;;8.63;100.00;100881.34;5039030;28;20462;-74
2024/03/07 02:01:00;;;;;;;3.83;1.52;;;;;;;8.62;100.00;100882.31;5039268;28;20029;-75
2024/03/07 02:03:26;;;;;;;4.93;1.70;;;;;;;8.61;100.00;100888.69;5042802;28;20374;-74
2024/03/07 02:05:53;;;;;;;3.10;1.23;;;;;;;8.58;100.00;100884.50;5059415;28;20039;-74
2024/03/07 02:08:19;;;;;;;3.70;1.58;;;;;;;8.57;100.00;100888.19;5075851;28;20024;-75
2024/03/07 02:10:46;;;;;;;4.82;1.50;;;;;;;8.56;100.00;100891.84;5042813;28;20059;-74
2024/03/07 02:13:11;;;;;;;0.70;0.70;;;;;;;8.54;100.00;100884.97;5042705;28;20119;-75
2024/03/07 02:15:37;;;;;;;8.07;1.65;;;;;;;8.54;100.00;100884.97;5042619;28;20024;-74
2024/03/07 02:18:04;;;;;;;5.70;1.98;;;;;;;8.53;100.00;100883.28;5075292;28;20063;-74
2024/03/07 02:20:30;;;;;;;6.32;2.42;;;;;;;8.54;100.00;100874.25;5059214;28;20562;-75
2024/03/07 02:22:55;;;;;;;3.67;1.45;;;;;;;8.55;100.00;100879.47;5042460;28;20120;-74
2024/03/07 02:25:21;;;;;;;3.78;1.95;;;;;;;8.55;100.00;100875.94;5075537;28;20063;-75
2024/03/07 02:27:49;;;;;;;5.18;1.75;;;;;;;8.55;100.00;100878.63;5058990;28;20045;-75
2024/03/07 02:30:16;;;;;;;6.57;1.83;;;;;;;8.53;100.00;100877.94;5042429;28;20037;-75
2024/03/07 02:32:42;;;;;;;7.80;1.90;;;;;;;8.45;100.00;100872.53;5042481;28;20040;-75
2024/03/07 02:35:08;;;;;;;7.20;2.22;;;;;;;8.40;100.00;100874.84;5042263;28;20029;-75
2024/03/07 02:37:34;;;;;;;8.02;2.22;;;;;;;8.33;100.00;100874.59;5042474;28;20390;-75
2024/03/07 02:40:00;;;;;;;3.83;1.65;;;;;;;8.27;100.00;100869.88;5042172;28;20094;-75
2024/03/07 02:42:25;;;;;;;2.10;1.10;;;;;;;8.21;100.00;100876.72;5058714;28;20032;-75
2024/03/07 02:44:52;;;;;;;3.63;1.25;;;;;;;8.18;100.00;100866.31;5042101;28;20024;-75
2024/03/07 02:47:18;;;;;;;2.60;1.48;;;;;;;8.21;100.00;100870.53;5058718;28;20024;-75
2024/03/07 02:49:44;;;;;;;7.82;2.10;;;;;;;8.21;100.00;100870.53;5042011;28;20029;-75
2024/03/07 02:52:10;;;;;;;4.22;1.98;;;;;;;8.27;100.00;100870.72;5041912;28;20052;-75
2024/03/07 02:54:35;;;;;;;4.43;1.67;;;;;;;8.31;100.00;100874.78;5075001;28;20032;-75
2024/03/07 02:57:01;;;;;;;7.22;1.90;;;;;;;8.32;100.00;100864.88;5041647;28;20028;-75
2024/03/07 02:59:27;;;;;;;1.73;1.35;;;;;;;8.27;100.00;100865.34;5041749;28;20028;-75
2024/03/07 03:01:52;;;;;;;8.13;2.47;;;;;;;8.29;100.00;100858.00;5042067;28;20032;-75
2024/03/07 03:04:18;;;;;;;6.07;2.15;;;;;;;8.34;100.00;100866.41;5041756;28;20036;-75
2024/03/07 03:06:44;;;;;;;5.65;1.75;;;;;;;8.28;100.00;100860.84;5058217;28;20032;-75
2024/03/07 03:09:17;;;;;;;7.60;2.20;;;;;;;8.22;100.00;100867.66;5058145;28;20035;-75
2024/03/07 03:11:44;;;;;;;7.40;2.53;;;;;;;8.17;100.00;100861.09;5059153;28;20028;-75
2024/03/07 03:14:10;;;;;;;9.68;2.30;;;;;;;8.09;100.00;100867.25;5024914;28;20032;-75
2024/03/07 03:16:36;;;;;;;5.85;1.48;;;;;;;8.00;100.00;100863.69;5058010;28;20052;-75
2024/03/07 03:19:02;;;;;;;8.20;1.45;;;;;;;7.95;100.00;100871.34;5041430;28;20134;-75
2024/03/07 03:21:27;;;;;;;10.10;2.13;;;;;;;7.93;100.00;100868.81;5041413;28;20040;-75
2024/03/07 03:23:54;;;;;;;9.02;2.30;;;;;;;7.99;100.00;100867.38;5041354;28;20032;-75
2024/03/07 03:26:21;;;;;;;7.72;2.47;;;;;;;8.10;100.00;100868.94;5057676;28;20078;-75
2024/03/07 03:28:47;;;;;;;12.90;3.58;;;;;;;8.20;100.00;100866.97;5041309;28;20036;-75
2024/03/07 03:31:13;;;;;;;5.10;2.13;;;;;;;8.27;100.00;100870.72;5074188;28;20410;-75
2024/03/07 03:33:40;;;;;;;9.93;1.88;;;;;;;8.31;100.00;100872.09;5040996;28;20393;-75
2024/03/07 03:36:07;;;;;;;4.93;1.67;;;;;;;8.31;100.00;100857.88;5057761;28;20028;-75
2024/03/07 03:38:33;;;;;;;14.40;3.10;;;;;;;8.30;100.00;100865.03;5057381;28;20039;-75
2024/03/07 03:40:58;;;;;;;3.10;1.45;;;;;;;8.27;100.00;100854.63;5041054;28;20024;-75
2024/03/07 03:43:24;;;;;;;5.18;1.95;;;;;;;8.25;100.00;100872.69;5041027;28;20506;-75
2024/03/07 03:45:49;;;;;;;1.00;0.85;;;;;;;8.21;100.00;100867.84;5041051;28;20493;-75
2024/03/07 03:48:15;;;;;;;6.70;2.30;;;;;;;8.20;100.00;100863.47;5040873;28;20038;-75
2024/03/07 03:50:41;;;;;;;7.55;1.73;;;;;;;8.20;100.00;100861.63;5040861;28;20028;-75
2024/03/07 03:53:07;;;;;;;6.28;1.95;;;;;;;8.13;100.00;100853.38;5040799;28;20040;-75
2024/03/07 03:55:34;;;;;;;7.35;1.60;;;;;;;7.98;100.00;100864.81;5057288;28;20036;-75
2024/03/07 03:57:59;;;;;;;6.20;2.33;;;;;;;7.81;100.00;100863.88;5040626;28;20016;-75
2024/03/07 04:00:25;;;;;;;16.63;2.80;;;;;;;7.68;100.00;100858.91;5040436;28;20024;-75
2024/03/07 04:02:51;;;;;;;5.00;2.00;;;;;;;7.60;100.00;100861.53;5040598;28;20028;-76
2024/03/07 04:05:18;;;;;;;7.10;1.98;;;;;;;7.61;100.00;100863.19;5040571;28;20028;-75
2024/03/07 04:07:44;;;;;;;9.55;2.05;;;;;;;7.54;100.00;100865.66;5040537;28;20028;-75
2024/03/07 04:10:11;;;;;;;12.57;1.67;;;;;;;7.47;100.00;100862.75;5040418;28;20131;-75
2024/03/07 04:12:38;;;;;;;3.22;1.60;;;;;;;7.42;100.00;100870.38;5057544;28;20063;-75
2024/03/07 04:15:07;;;;;;;4.53;1.58;;;;;;;7.30;100.00;100871.59;5041199;28;20051;-75
2024/03/07 04:17:33;;;;;;;8.30;2.03;;;;;;;7.21;100.00;100867.16;5056746;28;20490;-75
2024/03/07 04:20:11;;;;;;;1.77;1.02;;;;;;;7.15;100.00;100870.44;5056486;28;20372;-75
2024/03/07 04:22:40;;;;;;;3.40;1.88;;;;;;;7.11;100.00;100871.72;5057412;28;20028;-75
2024/03/07 04:25:07;;;;;;;11.88;1.77;;;;;;;7.09;100.00;100866.53;5072377;28;20103;-75
2024/03/07 04:27:36;;;;;;;3.92;1.70;;;;;;;7.15;100.00;100873.13;5074344;28;20024;-76
2024/03/07 04:30:11;;;;;;;3.70;1.60;;;;;;;7.09;100.00;100879.06;5040116;28;20086;-75
2024/03/07 04:32:38;;;;;;;8.98;2.10;;;;;;;7.08;100.00;100875.53;5041046;28;20098;-75
2024/03/07 04:35:07;;;;;;;4.93;1.77;;;;;;;7.02;100.00;100884.19;5056352;28;20413;-75
2024/03/07 04:37:37;;;;;;;7.00;1.60;;;;;;;7.04;100.00;100885.72;5056472;28;20461;-75
2024/03/07 04:40:14;;;;;;;5.03;1.80;;;;;;;6.97;100.00;100884.63;5072691;28;20035;-75
2024/03/07 04:42:50;;;;;;;8.60;1.98;;;;;;;6.98;100.00;100878.25;5056822;28;20425;-75
2024/03/07 04:45:16;;;;;;;12.90;2.20;;;;;;;6.93;100.00;100880.56;5040229;28;20123;-75
2024/03/07 04:47:42;;;;;;;4.55;1.65;;;;;;;6.95;100.00;100889.25;5056335;28;20111;-75
2024/03/07 04:50:12;;;;;;;5.65;1.60;;;;;;;6.90;100.00;100885.34;5039777;28;20039;-75
2024/03/07 04:52:41;;;;;;;4.95;1.65;;;;;;;6.87;100.00;100891.84;5040172;28;20078;-75
2024/03/07 04:55:10;;;;;;;2.60;0.95;;;;;;;6.85;100.00;100880.44;5056158;28;20017;-75
2024/03/07 04:57:38;;;;;;;4.65;1.63;;;;;;;7.00;100.00;100903.03;5057005;28;20056;-75
2024/03/07 05:00:06;;;;;;;2.13;1.48;;;;;;;7.10;100.00;100894.13;5039853;28;20089;-76
2024/03/07 05:02:32;;;;;;;6.47;1.63;;;;;;;7.18;100.00;100900.41;5072998;28;20036;-75
2024/03/07 05:04:57;;;;;;;3.22;1.35;;;;;;;7.26;100.00;100897.81;5039597;28;20035;-75
2024/03/07 05:07:26;;;;;;;3.33;1.50;;;;;;;7.23;100.00;100900.78;5040022;28;20036;-75
2024/03/07 05:09:54;;;;;;;4.20;1.33;;;;;;;7.34;100.00;100897.06;5055725;28;20090;-75
2024/03/07 05:12:20;;;;;;;9.52;1.65;;;;;;;7.37;100.00;100896.75;5074245;28;20032;-75
2024/03/07 05:14:45;;;;;;;3.55;1.23;;;;;;;7.31;100.00;100897.38;5039523;28;20488;-75
2024/03/07 05:17:12;;;;;;;4.35;1.70;;;;;;;7.34;100.00;100906.91;5055439;28;20463;-75
2024/03/07 05:19:37;;;;;;;5.72;1.52;;;;;;;7.48;100.00;100907.22;5039456;28;20028;-75
2024/03/07 05:22:04;;;;;;;10.45;2.97;;;;;;;7.49;100.00;100903.56;5055847;28;20032;-75
2024/03/07 05:24:32;;;;;;;3.65;1.80;;;;;;;7.45;100.00;100904.03;5040108;28;20177;-75
2024/03/07 05:26:58;;;;;;;3.33;1.63;;;;;;;7.31;100.00;100900.03;5039498;28;20029;-75
2024/03/07 05:29:24;;;;;;;7.47;2.60;;;;;;;7.18;100.00;100907.59;5056615;28;20124;-75
2024/03/07 05:31:49;;;;;;;3.88;1.48;;;;;;;7.20;100.00;100914.47;5055836;28;20459;-75
2024/03/07 05:34:18;;;;;;;6.57;2.45;;;;;;;7.28;100.00;100903.03;5039323;28;20036;-75
2024/03/07 05:36:46;;;;;;;2.15;1.30;;;;;;;7.33;100.00;100907.91;5042703;28;20017;-75
2024/03/07 05:39:15;;;;;;;7.78;1.60;;;;;;;7.37;100.00;100920.00;5043078;28;20033;-75
2024/03/07 05:41:42;;;;;;;9.70;2.03;;;;;;;7.26;100.00;100921.88;5059903;28;20028;-75
2024/03/07 05:44:08;;;;;;;4.70;1.40;;;;;;;7.16;100.00;100926.44;5076251;28;20458;-75
2024/03/07 05:46:50;;;;;;;3.47;1.50;;;;;;;7.16;100.00;100930.94;5026871;28;20040;-75
2024/03/07 05:49:20;;;;;;;4.97;1.40;;;;;;;7.10;100.00;100936.91;5060693;28;20107;-75
2024/03/07 05:51:45;;;;;;;5.15;1.73;;;;;;;7.07;100.00;100939.88;5076272;28;20047;-75
2024/03/07 05:54:12;;;;;;;3.85;1.63;;;;;;;7.01;100.00;100939.47;5075899;28;20382;-75
2024/03/07 05:56:45;;;;;;;5.03;1.85;;;;;;;7.08;100.00;100942.38;5045277;28;20028;-75
2024/03/07 05:59:11;;;;;;;5.25;1.65;;;;;;;7.27;100.00;100936.09;5043005;28;20027;-75
2024/03/07 06:01:37;;;;;;;5.00;1.67;;;;;;;7.47;100.00;100952.88;5076144;28;20025;-75
2024/03/07 06:04:07;;;;;;;3.55;1.20;;;;;;;7.61;100.00;100938.13;5042856;28;20191;-75
2024/03/07 06:06:33;;;;;;;5.93;1.88;;;;;;;7.76;100.00;100943.81;5076780;28;20039;-75
2024/03/07 06:09:08;;;;;;;5.95;1.75;;;;;;;7.79;100.00;100943.50;5058940;28;20459;-76
2024/03/07 06:11:35;;;;;;;7.82;1.90;;;;;;;7.86;100.00;100944.56;5042738;28;20446;-75
2024/03/07 06:14:04;;;;;;;7.72;1.48;;;;;;;7.89;100.00;100953.13;5077508;28;20028;-75
2024/03/07 06:16:32;;;;;;;8.75;2.05;;;;;;;7.93;100.00;100942.94;5059009;28;20032;-76
2024/03/07 06:19:08;;;;;;;4.95;1.58;;;;;;;8.00;100.00;100953.88;5042759;28;20043;-75
2024/03/07 06:21:35;;;;;;;4.00;1.25;;;;;;;8.05;100.00;100956.94;5042989;28;20158;-75
2024/03/07 06:24:01;;;;;;;9.65;1.77;;;;;;;8.04;100.00;100958.75;5042495;28;20047;-75
2024/03/07 06:29:08;;;;;;;3.20;1.25;;;;;;;8.00;100.00;100952.03;5075764;28;20447;-75
2024/03/07 06:31:34;;;;;;;3.33;1.35;;;;;;;8.01;100.00;100950.19;5059052;28;20394;-75
2024/03/07 06:34:00;;;;;;;5.15;1.48;;;;;;;8.04;100.00;100949.88;5075431;28;20024;-75
2024/03/07 06:36:26;;;;;;;6.93;1.70;;;;;;;8.06;100.00;100948.75;5041774;28;20497;-76
2024/03/07 06:38:52;;;;;;;7.32;2.35;;;;;;;8.09;100.00;100947.59;5042212;28;20036;-75
2024/03/07 06:41:17;;;;;;;4.55;2.00;;;;;;;8.10;100.00;100960.00;5058352;28;20028;-76
2024/03/07 06:43:44;;;;;;;8.02;1.60;;;;;;;8.07;100.00;100955.78;5042127;28;20032;-76
2024/03/07 06:46:10;;;;;;;8.15;1.67;;;;;;;8.07;100.00;100955.78;5058657;28;20028;-75
2024/03/07 06:48:36;;;;;;;9.60;2.22;;;;;;;8.07;100.00;100963.84;5057984;28;20455;-75
2024/03/07 06:51:01;;;;;;;4.30;1.67;;;;;;;8.09;100.00;100958.31;5042016;28;20036;-75
2024/03/07 06:53:28;;;;;;;6.97;2.20;;;;;;;8.08;100.00;100960.16;5041979;28;20024;-75
2024/03/07 06:55:55;;;;;;;4.03;1.73;;;;;;;8.09;100.00;100969.84;5042001;28;20046;-75
2024/03/07 06:58:20;;;;;;;6.30;1.80;;;;;;;8.09;100.00;100960.97;5074575;28;20030;-75
2024/03/07 07:00:46;;;;;;;5.93;2.17;;;;;;;8.08;100.00;100964.66;5058374;28;20036;-76
2024/03/07 07:03:14;;;;;;;6.90;2.03;;;;;;;8.08;100.00;100968.19;5057835;28;20025;-75
2024/03/07 07:05:44;;;;;;;7.45;1.95;;;;;;;8.07;100.00;100971.00;5041969;28;20025;-75
2024/03/07 07:08:10;;;;;;;10.30;2.55;;;;;;;8.06;100.00;100980.03;5042304;28;20024;-75
2024/03/07 07:10:36;;;;;;;4.88;1.73;;;;;;;8.07;100.00;100965.63;5041622;28;20086;-75
2024/03/07 07:13:04;;;;;;;4.82;1.70;;;;;;;8.11;100.00;100975.06;5041631;28;20459;-75
2024/03/07 07:15:30;;;;;;;4.00;2.08;;;;;;;8.12;100.00;100969.56;5074652;28;20459;-75
2024/03/07 07:17:55;;;;;;;4.38;2.40;;;;;;;8.12;100.00;100968.69;5041271;28;20031;-75
2024/03/07 07:20:23;;;;;;;5.50;1.95;;;;;;;8.09;100.00;100964.50;5074536;28;20032;-76
2024/03/07 07:22:49;;;;;;;5.68;2.25;;;;;;;8.05;100.00;100976.53;5058176;28;20029;-76
2024/03/07 07:25:16;;;;;;;8.13;2.15;;;;;;;8.03;100.00;100977.69;5041327;28;20028;-76
2024/03/07 07:27:44;;;;;;;12.63;2.88;;;;;;;8.03;100.00;100972.31;5041370;28;20367;-75
2024/03/07 07:30:15;;;;;;;10.07;2.58;;;;;;;8.01;100.00;100971.63;5057809;28;20140;-75
2024/03/07 07:32:41;;;;;;;7.22;2.55;;;;;;;7.97;100.00;100975.63;5057638;28;20028;-75
2024/03/07 07:35:11;;;;;;;10.43;2.90;;;;;;;7.96;100.00;100973.91;5057190;28;20032;-75
2024/03/07 07:37:40;;;;;;;10.90;2.28;;;;;;;7.97;100.00;100965.75;5074228;28;20025;-75
2024/03/07 07:40:18;;;;;;;9.15;2.50;;;;;;;8.00;100.00;100978.81;5040641;28;20355;-75
2024/03/07 07:42:52;;;;;;;9.02;3.25;;;;;;;8.02;100.00;100981.31;5074472;28;20082;-75
2024/03/07 07:45:20;;;;;;;7.63;2.33;;;;;;;8.03;100.00;100977.69;5074054;28;20036;-75
2024/03/07 07:47:48;;;;;;;6.47;2.63;;;;;;;8.01;100.00;100976.97;5074087;28;20032;-75
2024/03/07 07:50:19;;;;;;;7.13;2.42;;;;;;;7.98;100.00;100975.44;5040838;28;20459;-75
2024/03/07 07:52:48;;;;;;;4.47;2.63;;;;;;;7.96;100.00;100974.75;5041390;28;20111;-75
2024/03/07 07:55:15;;;;;;;8.70;3.10;;;;;;;7.94;100.00;101000.88;5073421;28;20032;-75
2024/03/07 07:57:44;;;;;;;7.25;3.03;;;;;;;7.91;100.00;100985.09;5056770;28;20028;-75
2024/03/07 08:00:23;;;;;;;8.23;3.00;;;;;;;7.89;100.00;100989.78;5055932;28;20496;-75
2024/03/07 08:03:02;;;;;;;9.73;2.75;;;;;;;7.90;100.00;100999.47;5057611;28;20040;-75
2024/03/07 08:05:29;;;;;;;13.82;3.75;;;;;;;7.93;100.00;100988.44;5073279;28;20466;-75
2024/03/07 08:07:57;;;;;;;8.65;3.38;;;;;;;7.95;100.00;100996.34;5057184;28;20104;-75
2024/03/07 08:10:28;;;;;;;5.28;2.63;;;;;;;7.96;100.00;100998.03;5057060;28;20025;-75
2024/03/07 08:12:55;;;;;;;9.15;3.88;;;;;;;7.96;100.00;100998.03;5040548;28;20029;-76
2024/03/07 08:15:21;;;;;;;7.45;2.28;;;;;;;7.92;100.00;100995.66;5040414;28;20522;-76
2024/03/07 08:17:48;;;;;;;5.82;2.40;;;;;;;7.96;100.00;101000.69;5073307;28;20025;-75
2024/03/07 08:20:16;;;;;;;10.23;3.08;;;;;;;7.94;100.00;101003.53;5056607;28;20029;-76
2024/03/07 08:22:42;;;;;;;6.63;2.85;;;;;;;7.95;100.00;100988.31;5073630;28;20466;-75
2024/03/07 08:25:09;;;;;;;10.02;3.42;;;;;;;7.93;100.00;100994.66;5056939;28;20036;-74
2024/03/07 08:27:41;;;;;;;10.07;3.20;;;;;;;7.91;100.00;100991.31;5040193;28;20033;-75
2024/03/07 08:30:12;;;;;;;8.73;3.97;;;;;;;7.92;100.00;100992.13;5040988;28;20371;-74
2024/03/07 08:32:43;;;;;;;11.25;2.90;;;;;;;7.91;100.00;100993.97;5041192;28;20390;-75
2024/03/07 08:35:09;;;;;;;13.25;3.83;;;;;;;7.93;100.00;100983.94;5056205;28;20021;-75
2024/03/07 08:37:36;;;;;;;14.40;5.43;;;;;;;7.96;100.00;100985.47;5073224;28;20017;-75
2024/03/07 08:40:18;;;;;;;5.45;2.50;;;;;;;8.03;100.00;100983.03;5073108;28;20036;-75
2024/03/07 08:42:46;;;;;;;10.75;3.42;;;;;;;8.08;100.00;100984.25;5073136;28;20032;-75
2024/03/07 08:45:16;;;;;;;9.65;4.47;;;;;;;8.10;100.00;100986.78;5039902;28;20048;-75
2024/03/07 08:47:46;;;;;;;7.50;3.42;;;;;;;8.10;100.00;100989.47;5057299;28;20028;-75
2024/03/07 08:50:13;;;;;;;10.35;4.10;;;;;;;8.05;100.00;100981.03;5072798;28;20032;-75
2024/03/07 08:52:40;;;;;;;7.80;3.50;;;;;;;8.05;100.00;100989.09;5056279;28;20036;-74
2024/03/07 08:55:09;;;;;;;15.38;5.07;;;;;;;8.01;100.00;100991.22;5039333;28;20374;-74
2024/03/07 08:57:36;;;;;;;11.70;4.78;;;;;;;8.00;100.00;100994.06;5056352;28;20039;-75
2024/03/07 09:00:08;;;;;;;13.77;4.57;;;;;;;7.96;100.00;100984.63;5055863;28;20493;-74
2024/03/07 09:02:38;;;;;;;9.98;3.55;;;;;;;7.92;100.00;100989.47;5072903;28;20029;-74
2024/03/07 09:05:04;;;;;;;11.95;4.82;;;;;;;7.90;100.00;100994.94;5039830;28;20493;-74
2024/03/07 09:07:30;;;;;;;13.27;5.40;;;;;;;7.87;100.00;100987.22;5056600;28;20024;-74
2024/03/07 09:09:56;;;;;;;9.27;4.85;;;;;;;7.93;100.00;100985.78;5055327;28;20459;-75
2024/03/07 09:12:22;;;;;;;9.27;3.42;;;;;;;8.00;100.00;100991.38;5055826;28;20052;-74
2024/03/07 09:14:48;;;;;;;9.95;3.78;;;;;;;8.02;100.00;100989.38;5055952;28;20036;-74
2024/03/07 09:17:13;;;;;;;11.48;5.10;;;;;;;8.00;100.00;100988.69;5055419;28;20056;-74
2024/03/07 09:19:39;;;;;;;10.88;5.53;;;;;;;8.01;100.00;100987.69;5055395;28;20478;-74
2024/03/07 09:22:07;;;;;;;10.20;5.40;;;;;;;8.02;100.00;100986.69;5039989;28;20451;-74
2024/03/07 09:24:34;;;;;;;13.75;5.65;;;;;;;8.07;100.00;100985.25;5039685;28;20038;-74
2024/03/07 09:27:00;;;;;;;16.60;5.95;;;;;;;8.22;100.00;100979.34;5039390;28;20028;-75
2024/03/07 09:29:27;;;;;;;15.88;4.95;;;;;;;8.43;100.00;100976.34;5072397;28;20052;-74
2024/03/07 09:31:53;;;;;;;9.40;4.40;;;;;;;8.47;100.00;100983.94;5039800;28;20024;-75
2024/03/07 09:34:20;;;;;;;11.15;4.93;;;;;;;8.50;100.00;100977.41;5039024;28;20032;-74
2024/03/07 09:36:49;;;;;;;14.38;5.22;;;;;;;8.57;100.00;100975.75;5072242;28;20090;-75
2024/03/07 09:39:15;;;;;;;15.20;5.15;;;;;;;8.54;100.00;100979.59;5039239;28;20028;-74
2024/03/07 09:41:42;;;;;;;13.10;4.05;;;;;;;8.52;100.00;100984.31;5039311;28;20467;-74
2024/03/07 09:44:22;;;;;;;9.10;4.50;;;;;;;8.53;100.00;100985.97;5071953;28;20017;-76
2024/03/07 09:46:52;;;;;;;9.73;3.97;;;;;;;8.55;100.00;100983.16;5056507;28;20025;-75
2024/03/07 09:49:19;;;;;;;15.00;4.60;;;;;;;8.65;100.00;100988.38;5038947;28;20041;-75
2024/03/07 09:51:45;;;;;;;18.02;5.18;;;;;;;8.75;100.00;100981.09;5038972;28;20070;-76
2024/03/07 09:54:11;;;;;;;13.77;4.65;;;;;;;8.91;100.00;100983.00;5072150;28;20421;-75
2024/03/07 09:56:38;;;;;;;9.27;4.80;;;;;;;9.21;100.00;100981.66;5039082;28;20039;-76
2024/03/07 09:59:07;;;;;;;9.27;3.83;;;;;;;9.57;100.00;100981.44;5055595;28;20037;-75
2024/03/07 10:01:34;;;;;;;9.75;4.45;;;;;;;10.07;100.00;100984.03;5055829;28;20050;-76
2024/03/07 10:04:11;;;;;;;7.22;4.15;;;;;;;10.32;100.00;100970.66;5071819;28;20025;-76
2024/03/07 10:06:40;;;;;;;13.00;5.13;;;;;;;10.25;100.00;100969.59;5057196;28;20523;-75
2024/03/07 10:09:07;;;;;;;14.57;4.43;;;;;;;9.93;100.00;100976.66;5055030;28;20024;-75
2024/03/07 10:11:34;;;;;;;12.85;5.45;;;;;;;9.77;100.00;100982.00;5039254;28;20089;-75
2024/03/07 10:14:00;;;;;;;11.02;4.28;;;;;;;9.65;100.00;100971.53;5055356;28;20040;-75
2024/03/07 10:16:26;;;;;;;8.63;2.78;;;;;;;9.76;100.00;100972.25;5038844;28;20032;-75
2024/03/07 10:18:51;;;;;;;8.20;4.28;;;;;;;9.71;100.00;100978.09;5072030;28;20039;-76
2024/03/07 10:21:22;;;;;;;7.88;3.67;;;;;;;9.94;100.00;100972.94;5071642;28;20029;-74
2024/03/07 10:23:48;;;;;;;13.25;4.25;;;;;;;10.27;100.00;100979.22;5041686;28;20032;-74
2024/03/07 10:26:17;;;;;;;15.73;4.28;;;;;;;10.42;100.00;100976.66;5075263;28;20131;-74
2024/03/07 10:28:43;;;;;;;11.30;3.83;;;;;;;10.44;100.00;100973.81;5042547;28;20038;-74
2024/03/07 10:31:11;;;;;;;8.10;3.67;;;;;;;10.55;100.00;100982.34;5075167;28;20016;-74
2024/03/07 10:33:40;;;;;;;8.63;2.97;;;;;;;10.33;100.00;100966.94;5059236;28;20028;-74
2024/03/07 10:36:10;;;;;;;6.13;2.45;;;;;;;10.29;100.00;100969.13;5042204;28;20032;-74
2024/03/07 10:38:37;;;;;;;8.95;3.13;;;;;;;10.18;100.00;100973.97;5059645;28;20024;-74
2024/03/07 10:41:03;;;;;;;10.35;3.78;;;;;;;10.13;100.00;100977.16;5058539;28;20025;-74
2024/03/07 10:43:29;;;;;;;7.65;2.60;;;;;;;10.19;100.00;100975.63;5058828;28;20033;-74
2024/03/07 10:45:57;;;;;;;8.55;2.90;;;;;;;10.41;100.00;100985.75;5042088;28;20034;-74
2024/03/07 10:48:27;;;;;;;8.40;2.85;;;;;;;10.55;100.00;100978.84;5041845;28;20036;-74
2024/03/07 10:51:15;;;;;;;6.45;2.28;;;;;;;10.88;100.00;100987.69;5074884;28;20078;-74
2024/03/07 10:54:12;;;;;;;6.78;2.63;;;;;;;10.99;100.00;100981.09;5058575;28;20035;-74
2024/03/07 10:56:59;;;;;;;5.70;2.47;;;;;;;11.12;100.00;100988.63;5076019;28;20024;-74
2024/03/07 10:59:30;;;;;;;9.93;2.55;;;;;;;10.88;100.00;100974.25;5075091;28;20089;-74
2024/03/07 11:02:01;;;;;;;4.82;2.17;;;;;;;10.73;100.00;100978.66;5042087;28;20036;-73
2024/03/07 11:04:29;;;;;;;9.35;3.50;;;;;;;10.68;100.00;100976.47;5058419;28;20035;-74
2024/03/07 11:06:55;;;;;;;9.60;4.30;;;;;;;10.75;100.00;100973.94;5058884;28;20379;-74
2024/03/07 11:09:28;;;;;;;8.27;2.80;;;;;;;10.64;100.00;100974.28;5058001;28;20032;-74
2024/03/07 11:11:56;;;;;;;7.05;2.83;;;;;;;10.66;100.00;100972.25;5059339;28;20039;-74
2024/03/07 11:14:23;;;;;;;6.90;2.88;;;;;;;10.82;100.00;100971.38;5058119;28;20471;-74
2024/03/07 11:16:49;;;;;;;4.43;2.53;;;;;;;11.40;100.00;100970.16;5041425;28;20020;-74
2024/03/07 11:19:36;;;;;;;6.13;2.40;;;;;;;11.49;100.00;100962.91;5074539;28;20077;-74
2024/03/07 11:22:07;;;;;;;8.55;3.00;;;;;;;11.64;100.00;100963.78;5058509;28;20516;-74
2024/03/07 11:24:33;;;;;;;8.25;2.80;;;;;;;12.25;100.00;100951.25;5058832;28;20056;-74
2024/03/07 11:27:07;;;;;;;7.00;2.90;;;;;;;12.27;99.88;100956.47;5057964;28;20470;-74